createdAt,value
2018-04-17T00:00:28.834Z,941.43
2018-04-17T00:01:28.877Z,941.43
2018-04-17T00:02:28.862Z,941.46
2018-04-17T00:03:28.869Z,941.42
2018-04-17T00:04:29.185Z,941.42
2018-04-17T00:05:28.897Z,941.36
2018-04-17T00:06:28.911Z,941.39
2018-04-17T00:07:28.948Z,941.38
2018-04-17T00:08:28.963Z,941.40
2018-04-17T00:09:29.070Z,941.36
2018-04-17T00:10:29.176Z,941.32
2018-04-17T00:11:28.982Z,941.29
2018-04-17T00:12:28.996Z,941.23
2018-04-17T00:13:29.035Z,941.23
2018-04-17T00:14:29.148Z,941.20
2018-04-17T00:15:29.039Z,941.21
2018-04-17T00:16:29.049Z,941.13
2018-04-17T00:17:29.090Z,941.13
2018-04-17T00:18:29.093Z,941.13
2018-04-17T00:19:29.199Z,941.13
2018-04-17T00:20:29.130Z,941.12
2018-04-17T00:21:29.148Z,941.08
2018-04-17T00:22:29.161Z,941.07
2018-04-17T00:23:29.146Z,941.06
2018-04-17T00:24:29.267Z,941.08
2018-04-17T00:25:29.201Z,941.03
2018-04-17T00:26:29.192Z,941.03
2018-04-17T00:27:29.209Z,941.06
2018-04-17T00:28:29.231Z,941.05
2018-04-17T00:29:29.529Z,941.01
2018-04-17T00:30:29.246Z,941.04
2018-04-17T00:31:29.264Z,941.05
2018-04-17T00:32:29.273Z,941.02
2018-04-17T00:33:29.284Z,941.03
2018-04-17T00:34:29.403Z,940.99
2018-04-17T00:35:29.326Z,940.93
2018-04-17T00:36:29.355Z,940.94
2018-04-17T00:37:29.354Z,940.90
2018-04-17T00:38:29.381Z,940.93
2018-04-17T00:39:29.467Z,940.91
2018-04-17T00:40:29.406Z,940.93
2018-04-17T00:41:29.407Z,940.94
2018-04-17T00:42:29.437Z,940.94
2018-04-17T00:43:29.418Z,940.94
2018-04-17T00:44:29.568Z,940.95
2018-04-17T00:45:29.454Z,940.93
2018-04-17T00:46:29.476Z,940.94
2018-04-17T00:47:29.497Z,940.95
2018-04-17T00:48:29.524Z,940.92
2018-04-17T00:49:29.605Z,940.94
2018-04-17T00:50:29.546Z,940.91
2018-04-17T00:51:29.560Z,940.91
2018-04-17T00:52:29.562Z,940.95
2018-04-17T00:53:29.560Z,940.90
2018-04-17T00:54:29.702Z,940.91
2018-04-17T00:55:29.589Z,940.89
2018-04-17T00:56:29.608Z,940.88
2018-04-17T00:57:29.626Z,940.85
2018-04-17T00:58:29.631Z,940.83
2018-04-17T00:59:29.742Z,940.81
2018-04-17T01:00:29.656Z,940.83
2018-04-17T01:01:29.700Z,940.83
2018-04-17T01:02:29.687Z,940.84
2018-04-17T01:03:29.723Z,940.85
2018-04-17T01:04:29.841Z,940.89
2018-04-17T01:05:29.723Z,940.94
2018-04-17T01:06:29.742Z,940.94
2018-04-17T01:07:29.754Z,940.97
2018-04-17T01:08:29.792Z,940.95
2018-04-17T01:09:29.781Z,940.98
2018-04-17T01:10:29.896Z,940.94
2018-04-17T01:11:29.805Z,940.96
2018-04-17T01:12:29.832Z,940.91
2018-04-17T01:13:29.833Z,940.94
2018-04-17T01:14:29.848Z,940.85
2018-04-17T01:15:29.958Z,940.83
2018-04-17T01:16:29.881Z,940.83
2018-04-17T01:17:29.892Z,940.79
2018-04-17T01:18:29.930Z,940.78
2018-04-17T01:19:29.917Z,940.81
2018-04-17T01:20:30.031Z,940.78
2018-04-17T01:21:29.939Z,940.79
2018-04-17T01:22:29.960Z,940.77
2018-04-17T01:23:29.971Z,940.79
2018-04-17T01:24:29.982Z,940.78
2018-04-17T01:25:30.146Z,940.78
2018-04-17T01:26:30.022Z,940.72
2018-04-17T01:27:30.061Z,940.80
2018-04-17T01:28:30.042Z,940.82
2018-04-17T01:29:30.083Z,940.84
2018-04-17T01:30:30.166Z,940.84
2018-04-17T01:31:30.090Z,940.92
2018-04-17T01:32:30.100Z,940.88
2018-04-17T01:33:30.105Z,940.90
2018-04-17T01:34:30.144Z,940.96
2018-04-17T01:35:30.309Z,940.91
2018-04-17T01:36:30.173Z,940.92
2018-04-17T01:37:30.187Z,940.92
2018-04-17T01:38:30.198Z,940.88
2018-04-17T01:39:30.207Z,940.89
2018-04-17T01:40:30.312Z,940.98
2018-04-17T01:41:30.240Z,940.91
2018-04-17T01:42:30.227Z,940.93
2018-04-17T01:43:30.271Z,940.92
2018-04-17T01:44:30.284Z,940.91
2018-04-17T01:45:30.368Z,940.92
2018-04-17T01:46:30.312Z,940.90
2018-04-17T01:47:30.296Z,940.92
2018-04-17T01:48:30.314Z,940.88
2018-04-17T01:49:30.323Z,940.89
2018-04-17T01:50:30.495Z,940.91
2018-04-17T01:51:30.384Z,940.94
2018-04-17T01:52:30.370Z,940.88
2018-04-17T01:53:30.380Z,940.90
2018-04-17T01:54:30.423Z,940.91
2018-04-17T01:55:30.505Z,940.93
2018-04-17T01:56:30.422Z,940.94
2018-04-17T01:57:30.439Z,940.93
2018-04-17T01:58:30.454Z,940.94
2018-04-17T01:59:30.489Z,940.92
2018-04-17T02:00:30.581Z,940.93
2018-04-17T02:01:30.496Z,940.92
2018-04-17T02:02:30.505Z,940.88
2018-04-17T02:03:30.585Z,940.86
2018-04-17T02:04:30.534Z,940.85
2018-04-17T02:05:30.647Z,940.86
2018-04-17T02:06:30.563Z,940.85
2018-04-17T02:07:30.579Z,940.83
2018-04-17T02:08:30.591Z,940.82
2018-04-17T02:09:30.619Z,940.77
2018-04-17T02:10:30.715Z,940.75
2018-04-17T02:11:30.655Z,940.73
2018-04-17T02:12:30.677Z,940.72
2018-04-17T02:13:30.686Z,940.76
2018-04-17T02:14:30.674Z,940.83
2018-04-17T02:15:30.784Z,940.82
2018-04-17T02:16:30.706Z,940.87
2018-04-17T02:17:30.740Z,940.94
2018-04-17T02:18:30.753Z,940.92
2018-04-17T02:19:30.768Z,940.96
2018-04-17T02:20:30.753Z,940.98
2018-04-17T02:21:30.871Z,940.92
2018-04-17T02:22:30.798Z,940.92
2018-04-17T02:23:30.802Z,940.93
2018-04-17T02:24:30.805Z,940.99
2018-04-17T02:25:30.823Z,940.99
2018-04-17T02:26:30.938Z,941.01
2018-04-17T02:27:30.891Z,941.01
2018-04-17T02:28:30.893Z,941.05
2018-04-17T02:29:30.910Z,941.03
2018-04-17T02:30:30.919Z,941.05
2018-04-17T02:31:31.035Z,941.08
2018-04-17T02:32:30.950Z,941.13
2018-04-17T02:33:30.959Z,941.15
2018-04-17T02:34:30.948Z,941.09
2018-04-17T02:35:30.960Z,941.13
2018-04-17T02:36:31.102Z,941.19
2018-04-17T02:37:30.993Z,941.20
2018-04-17T02:38:31.017Z,941.14
2018-04-17T02:39:31.043Z,941.19
2018-04-17T02:40:31.029Z,941.22
2018-04-17T02:41:31.168Z,941.17
2018-04-17T02:42:31.069Z,941.18
2018-04-17T02:43:31.103Z,941.08
2018-04-17T02:44:31.088Z,941.07
2018-04-17T02:45:31.101Z,941.07
2018-04-17T02:46:31.227Z,941.10
2018-04-17T02:47:31.191Z,941.11
2018-04-17T02:48:31.141Z,941.10
2018-04-17T02:49:31.166Z,941.10
2018-04-17T02:50:31.195Z,941.08
2018-04-17T02:51:31.282Z,941.08
2018-04-17T02:52:31.188Z,941.13
2018-04-17T02:53:31.223Z,941.17
2018-04-17T02:54:31.225Z,941.12
2018-04-17T02:55:31.263Z,941.10
2018-04-17T02:56:31.374Z,941.06
2018-04-17T02:57:31.271Z,941.10
2018-04-17T02:58:31.275Z,941.09
2018-04-17T02:59:31.316Z,941.05
2018-04-17T03:00:31.302Z,941.09
2018-04-17T03:01:31.442Z,941.04
2018-04-17T03:02:31.335Z,941.09
2018-04-17T03:03:31.347Z,941.15
2018-04-17T03:04:31.369Z,941.15
2018-04-17T03:05:31.370Z,941.20
2018-04-17T03:06:31.488Z,941.18
2018-04-17T03:07:31.423Z,941.17
2018-04-17T03:08:31.440Z,941.20
2018-04-17T03:09:31.465Z,941.12
2018-04-17T03:10:31.454Z,941.13
2018-04-17T03:11:31.553Z,941.09
2018-04-17T03:12:31.465Z,941.07
2018-04-17T03:13:31.483Z,941.04
2018-04-17T03:14:31.506Z,940.96
2018-04-17T03:15:31.514Z,940.91
2018-04-17T03:16:31.628Z,940.89
2018-04-17T03:17:31.551Z,940.90
2018-04-17T03:18:31.552Z,940.86
2018-04-17T03:19:31.587Z,940.92
2018-04-17T03:20:31.616Z,940.93
2018-04-17T03:21:31.736Z,940.89
2018-04-17T03:22:31.607Z,940.87
2018-04-17T03:23:31.614Z,940.88
2018-04-17T03:24:31.642Z,940.85
2018-04-17T03:25:31.670Z,940.87
2018-04-17T03:26:31.768Z,940.89
2018-04-17T03:27:31.672Z,940.92
2018-04-17T03:28:31.684Z,940.88
2018-04-17T03:29:31.698Z,940.93
2018-04-17T03:30:31.716Z,940.95
2018-04-17T03:31:31.729Z,940.93
2018-04-17T03:32:31.854Z,940.94
2018-04-17T03:33:31.756Z,940.93
2018-04-17T03:34:31.777Z,940.94
2018-04-17T03:35:31.779Z,940.96
2018-04-17T03:36:31.799Z,940.95
2018-04-17T03:37:31.936Z,940.94
2018-04-17T03:38:31.819Z,940.91
2018-04-17T03:39:31.833Z,940.90
2018-04-17T03:40:31.849Z,940.93
2018-04-17T03:41:31.891Z,940.93
2018-04-17T03:42:32.047Z,940.91
2018-04-17T03:43:31.890Z,940.91
2018-04-17T03:44:31.901Z,940.91
2018-04-17T03:45:31.941Z,940.87
2018-04-17T03:46:31.935Z,940.87
2018-04-17T03:47:32.044Z,940.91
2018-04-17T03:48:31.963Z,940.89
2018-04-17T03:49:31.977Z,940.92
2018-04-17T03:50:31.980Z,940.91
2018-04-17T03:51:31.999Z,940.94
2018-04-17T03:52:32.109Z,940.88
2018-04-17T03:53:32.031Z,940.85
2018-04-17T03:54:32.070Z,940.82
2018-04-17T03:55:32.079Z,940.83
2018-04-17T03:56:32.071Z,940.81
2018-04-17T03:57:32.228Z,940.82
2018-04-17T03:58:32.092Z,940.83
2018-04-17T03:59:32.132Z,940.83
2018-04-17T04:00:32.146Z,940.76
2018-04-17T04:01:32.161Z,940.76
2018-04-17T04:02:32.273Z,940.73
2018-04-17T04:03:32.172Z,940.75
2018-04-17T04:04:32.181Z,940.71
2018-04-17T04:05:32.188Z,940.64
2018-04-17T04:06:32.204Z,940.66
2018-04-17T04:07:32.322Z,940.63
2018-04-17T04:08:32.230Z,940.62
2018-04-17T04:09:32.264Z,940.62
2018-04-17T04:10:32.317Z,940.56
2018-04-17T04:11:32.280Z,940.52
2018-04-17T04:12:32.400Z,940.51
2018-04-17T04:13:32.323Z,940.55
2018-04-17T04:14:32.322Z,940.53
2018-04-17T04:15:32.350Z,940.53
2018-04-17T04:16:32.346Z,940.51
2018-04-17T04:17:32.467Z,940.46
2018-04-17T04:18:32.367Z,940.51
2018-04-17T04:19:32.384Z,940.54
2018-04-17T04:20:32.390Z,940.52
2018-04-17T04:21:32.437Z,940.55
2018-04-17T04:22:32.532Z,940.54
2018-04-17T04:23:32.433Z,940.52
2018-04-17T04:24:32.450Z,940.48
2018-04-17T04:25:32.460Z,940.49
2018-04-17T04:26:32.473Z,940.47
2018-04-17T04:27:32.717Z,940.48
2018-04-17T04:28:32.500Z,940.47
2018-04-17T04:29:32.549Z,940.45
2018-04-17T04:30:32.529Z,940.46
2018-04-17T04:31:32.552Z,940.42
2018-04-17T04:32:32.660Z,940.41
2018-04-17T04:33:32.599Z,940.42
2018-04-17T04:34:32.587Z,940.39
2018-04-17T04:35:32.628Z,940.39
2018-04-17T04:36:32.611Z,940.32
2018-04-17T04:37:32.754Z,940.32
2018-04-17T04:38:32.644Z,940.25
2018-04-17T04:39:32.656Z,940.29
2018-04-17T04:40:32.687Z,940.26
2018-04-17T04:41:32.709Z,940.22
2018-04-17T04:42:32.693Z,940.21
2018-04-17T04:43:32.841Z,940.21
2018-04-17T04:44:32.748Z,940.20
2018-04-17T04:45:32.744Z,940.19
2018-04-17T04:46:32.769Z,940.17
2018-04-17T04:47:32.770Z,940.22
2018-04-17T04:48:32.876Z,940.19
2018-04-17T04:49:32.816Z,940.18
2018-04-17T04:50:32.808Z,940.18
2018-04-17T04:51:32.847Z,940.16
2018-04-17T04:52:32.829Z,940.16
2018-04-17T04:53:32.945Z,940.17
2018-04-17T04:54:32.918Z,940.11
2018-04-17T04:55:32.873Z,940.15
2018-04-17T04:56:32.893Z,940.14
2018-04-17T04:57:32.897Z,940.12
2018-04-17T04:58:33.043Z,940.15
2018-04-17T04:59:33.043Z,940.14
2018-04-17T05:00:32.968Z,940.16
2018-04-17T05:01:32.961Z,940.11
2018-04-17T05:02:32.996Z,940.10
2018-04-17T05:03:33.107Z,940.16
2018-04-17T05:04:33.027Z,940.06
2018-04-17T05:05:33.007Z,940.05
2018-04-17T05:06:33.024Z,940.06
2018-04-17T05:07:33.033Z,940.03
2018-04-17T05:08:33.156Z,940.02
2018-04-17T05:09:33.063Z,940.01
2018-04-17T05:10:33.113Z,940.01
2018-04-17T05:11:33.117Z,940.00
2018-04-17T05:12:33.116Z,939.98
2018-04-17T05:13:33.216Z,940.00
2018-04-17T05:14:33.167Z,940.00
2018-04-17T05:15:33.149Z,939.99
2018-04-17T05:16:33.185Z,939.97
2018-04-17T05:17:33.174Z,939.91
2018-04-17T05:18:33.360Z,939.91
2018-04-17T05:19:33.204Z,939.90
2018-04-17T05:20:33.227Z,939.81
2018-04-17T05:21:33.226Z,939.84
2018-04-17T05:22:33.236Z,939.78
2018-04-17T05:23:33.383Z,939.80
2018-04-17T05:24:33.292Z,939.78
2018-04-17T05:25:33.305Z,939.80
2018-04-17T05:26:33.319Z,939.82
2018-04-17T05:27:33.332Z,939.82
2018-04-17T05:28:33.442Z,939.81
2018-04-17T05:29:33.342Z,939.80
2018-04-17T05:30:33.347Z,939.80
2018-04-17T05:31:33.355Z,939.78
2018-04-17T05:32:33.369Z,939.79
2018-04-17T05:33:33.495Z,939.80
2018-04-17T05:34:33.432Z,939.76
2018-04-17T05:35:33.442Z,939.78
2018-04-17T05:36:33.450Z,939.71
2018-04-17T05:37:33.439Z,939.69
2018-04-17T05:38:33.577Z,939.69
2018-04-17T05:39:33.472Z,939.66
2018-04-17T05:40:33.503Z,939.62
2018-04-17T05:41:33.526Z,939.62
2018-04-17T05:42:33.526Z,939.64
2018-04-17T05:43:33.672Z,939.67
2018-04-17T05:44:33.617Z,939.66
2018-04-17T05:45:33.570Z,939.64
2018-04-17T05:46:33.554Z,939.70
2018-04-17T05:47:33.595Z,939.72
2018-04-17T05:48:33.683Z,939.69
2018-04-17T05:49:33.641Z,939.74
2018-04-17T05:50:33.616Z,939.76
2018-04-17T05:51:33.647Z,939.69
2018-04-17T05:52:33.633Z,939.74
2018-04-17T05:53:33.662Z,939.73
2018-04-17T05:54:33.815Z,939.75
2018-04-17T05:55:33.696Z,939.84
2018-04-17T05:56:33.711Z,939.82
2018-04-17T05:57:33.700Z,939.83
2018-04-17T05:58:33.711Z,939.82
2018-04-17T05:59:33.864Z,939.81
2018-04-17T06:00:33.738Z,939.81
2018-04-17T06:01:33.779Z,939.77
2018-04-17T06:02:33.780Z,939.80
2018-04-17T06:03:33.804Z,939.80
2018-04-17T06:04:33.982Z,939.85
2018-04-17T06:05:33.817Z,939.89
2018-04-17T06:06:33.817Z,939.87
2018-04-17T06:07:33.884Z,939.93
2018-04-17T06:08:33.871Z,939.92
2018-04-17T06:09:33.992Z,939.94
2018-04-17T06:10:33.868Z,939.90
2018-04-17T06:11:33.895Z,939.93
2018-04-17T06:12:33.929Z,939.86
2018-04-17T06:13:33.907Z,939.85
2018-04-17T06:14:34.154Z,939.80
2018-04-17T06:15:33.939Z,939.81
2018-04-17T06:16:33.946Z,939.79
2018-04-17T06:17:33.978Z,939.79
2018-04-17T06:18:33.979Z,939.79
2018-04-17T06:19:34.153Z,939.78
2018-04-17T06:20:34.033Z,939.77
2018-04-17T06:21:34.010Z,939.75
2018-04-17T06:22:34.035Z,939.70
2018-04-17T06:23:34.040Z,939.71
2018-04-17T06:24:34.181Z,939.71
2018-04-17T06:25:34.065Z,939.69
2018-04-17T06:26:34.083Z,939.67
2018-04-17T06:27:34.095Z,939.68
2018-04-17T06:28:34.126Z,939.67
2018-04-17T06:29:34.255Z,939.63
2018-04-17T06:30:34.138Z,939.57
2018-04-17T06:31:34.173Z,939.57
2018-04-17T06:32:34.188Z,939.52
2018-04-17T06:33:34.212Z,939.49
2018-04-17T06:34:34.344Z,939.51
2018-04-17T06:35:34.265Z,939.52
2018-04-17T06:36:34.219Z,939.50
2018-04-17T06:37:34.253Z,939.53
2018-04-17T06:38:34.242Z,939.52
2018-04-17T06:39:34.422Z,939.61
2018-04-17T06:40:34.267Z,939.64
2018-04-17T06:41:34.306Z,939.68
2018-04-17T06:42:34.316Z,939.73
2018-04-17T06:43:34.308Z,939.69
2018-04-17T06:44:34.517Z,939.71
2018-04-17T06:45:34.333Z,939.68
2018-04-17T06:46:34.344Z,939.66
2018-04-17T06:47:34.476Z,939.64
2018-04-17T06:48:34.383Z,939.64
2018-04-17T06:49:34.537Z,939.61
2018-04-17T06:50:34.399Z,939.56
2018-04-17T06:51:34.408Z,939.60
2018-04-17T06:52:34.450Z,939.58
2018-04-17T06:53:34.444Z,939.61
2018-04-17T06:54:34.710Z,939.66
2018-04-17T06:55:34.490Z,939.65
2018-04-17T06:56:34.479Z,939.64
2018-04-17T06:57:34.489Z,939.60
2018-04-17T06:58:34.530Z,939.69
2018-04-17T06:59:34.663Z,939.63
2018-04-17T07:00:34.544Z,939.64
2018-04-17T07:01:34.539Z,939.67
2018-04-17T07:02:34.584Z,939.67
2018-04-17T07:03:34.571Z,939.67
2018-04-17T07:04:34.696Z,939.64
2018-04-17T07:05:34.594Z,939.66
2018-04-17T07:06:34.633Z,939.66
2018-04-17T07:07:34.630Z,939.64
2018-04-17T07:08:34.637Z,939.61
2018-04-17T07:09:34.758Z,939.57
2018-04-17T07:10:34.760Z,939.60
2018-04-17T07:11:34.732Z,939.63
2018-04-17T07:12:34.716Z,939.63
2018-04-17T07:13:34.699Z,939.63
2018-04-17T07:14:34.724Z,939.59
2018-04-17T07:15:34.825Z,939.58
2018-04-17T07:16:34.752Z,939.58
2018-04-17T07:17:34.755Z,939.55
2018-04-17T07:18:34.766Z,939.49
2018-04-17T07:19:34.852Z,939.51
2018-04-17T07:20:34.892Z,939.53
2018-04-17T07:21:34.839Z,939.52
2018-04-17T07:22:34.826Z,939.55
2018-04-17T07:23:34.861Z,939.54
2018-04-17T07:24:34.914Z,939.58
2018-04-17T07:25:35.001Z,939.53
2018-04-17T07:26:34.899Z,939.54
2018-04-17T07:27:34.892Z,939.55
2018-04-17T07:28:34.911Z,939.54
2018-04-17T07:29:34.907Z,939.55
2018-04-17T07:30:35.029Z,939.57
2018-04-17T07:31:34.967Z,939.57
2018-04-17T07:32:34.955Z,939.53
2018-04-17T07:33:34.972Z,939.54
2018-04-17T07:34:35.020Z,939.53
2018-04-17T07:35:35.091Z,939.57
2018-04-17T07:36:35.046Z,939.62
2018-04-17T07:37:35.015Z,939.62
2018-04-17T07:38:35.028Z,939.66
2018-04-17T07:39:35.148Z,939.69
2018-04-17T07:40:35.261Z,939.69
2018-04-17T07:41:35.097Z,939.69
2018-04-17T07:42:35.080Z,939.70
2018-04-17T07:43:35.096Z,939.65
2018-04-17T07:44:35.173Z,939.68
2018-04-17T07:45:35.249Z,939.68
2018-04-17T07:46:35.136Z,939.67
2018-04-17T07:47:35.173Z,939.66
2018-04-17T07:48:35.193Z,939.66
2018-04-17T07:49:35.176Z,939.66
2018-04-17T07:50:35.298Z,939.59
2018-04-17T07:51:35.205Z,939.64
2018-04-17T07:52:35.206Z,939.62
2018-04-17T07:53:35.401Z,939.67
2018-04-17T07:54:35.252Z,939.73
2018-04-17T07:55:35.361Z,939.71
2018-04-17T07:56:35.293Z,939.76
2018-04-17T07:57:35.278Z,939.76
2018-04-17T07:58:35.289Z,939.84
2018-04-17T07:59:35.307Z,939.84
2018-04-17T08:00:35.444Z,939.88
2018-04-17T08:01:35.358Z,939.89
2018-04-17T08:02:35.343Z,939.90
2018-04-17T08:03:35.384Z,939.88
2018-04-17T08:04:35.394Z,939.89
2018-04-17T08:05:35.492Z,939.93
2018-04-17T08:06:35.408Z,939.93
2018-04-17T08:07:35.436Z,939.94
2018-04-17T08:08:35.436Z,939.90
2018-04-17T08:09:35.441Z,939.90
2018-04-17T08:10:35.544Z,939.90
2018-04-17T08:11:35.472Z,939.95
2018-04-17T08:12:35.472Z,939.91
2018-04-17T08:13:35.483Z,939.95
2018-04-17T08:14:35.523Z,939.95
2018-04-17T08:15:35.711Z,939.95
2018-04-17T08:16:35.591Z,939.97
2018-04-17T08:17:35.671Z,939.96
2018-04-17T08:18:35.624Z,939.94
2018-04-17T08:19:35.639Z,939.95
2018-04-17T08:20:35.824Z,939.96
2018-04-17T08:21:35.691Z,939.97
2018-04-17T08:22:35.700Z,939.97
2018-04-17T08:23:35.687Z,939.91
2018-04-17T08:24:35.699Z,939.98
2018-04-17T08:25:35.715Z,939.93
2018-04-17T08:26:35.840Z,939.91
2018-04-17T08:27:35.767Z,939.92
2018-04-17T08:28:35.779Z,939.93
2018-04-17T08:29:35.770Z,939.97
2018-04-17T08:30:35.779Z,939.95
2018-04-17T08:31:35.860Z,939.99
2018-04-17T08:32:35.774Z,939.99
2018-04-17T08:33:35.763Z,939.99
2018-04-17T08:34:35.782Z,939.99
2018-04-17T08:35:35.796Z,940.03
2018-04-17T08:36:35.901Z,940.00
2018-04-17T08:37:35.843Z,940.03
2018-04-17T08:38:35.836Z,940.03
2018-04-17T08:39:35.845Z,940.03
2018-04-17T08:40:35.851Z,940.03
2018-04-17T08:41:35.991Z,940.03
2018-04-17T08:42:35.905Z,940.04
2018-04-17T08:43:35.898Z,940.09
2018-04-17T08:44:35.960Z,940.07
2018-04-17T08:45:35.948Z,940.08
2018-04-17T08:46:36.056Z,940.09
2018-04-17T08:47:35.948Z,940.04
2018-04-17T08:48:35.956Z,940.06
2018-04-17T08:49:35.978Z,940.02
2018-04-17T08:50:35.999Z,940.05
2018-04-17T08:51:36.096Z,940.06
2018-04-17T08:52:36.034Z,940.10
2018-04-17T08:53:36.031Z,940.12
2018-04-17T08:54:36.035Z,940.11
2018-04-17T08:55:36.059Z,940.16
2018-04-17T08:56:36.167Z,940.24
2018-04-17T08:57:36.082Z,940.19
2018-04-17T08:58:36.102Z,940.25
2018-04-17T08:59:36.147Z,940.27
2018-04-17T09:00:36.121Z,940.27
2018-04-17T09:01:36.282Z,940.28
2018-04-17T09:02:36.141Z,940.28
2018-04-17T09:03:36.164Z,940.30
2018-04-17T09:04:36.165Z,940.29
2018-04-17T09:05:36.173Z,940.26
2018-04-17T09:06:36.299Z,940.26
2018-04-17T09:07:36.233Z,940.28
2018-04-17T09:08:36.248Z,940.26
2018-04-17T09:09:36.238Z,940.27
2018-04-17T09:10:36.245Z,940.27
2018-04-17T09:11:36.368Z,940.27
2018-04-17T09:12:36.276Z,940.31
2018-04-17T09:13:36.313Z,940.29
2018-04-17T09:14:36.299Z,940.29
2018-04-17T09:15:36.333Z,940.32
2018-04-17T09:16:36.501Z,940.29
2018-04-17T09:17:36.363Z,940.28
2018-04-17T09:18:36.350Z,940.24
2018-04-17T09:19:36.392Z,940.28
2018-04-17T09:20:36.432Z,940.18
2018-04-17T09:21:36.572Z,940.20
2018-04-17T09:22:36.510Z,940.18
2018-04-17T09:23:36.473Z,940.18
2018-04-17T09:24:36.425Z,940.23
2018-04-17T09:25:36.449Z,940.27
2018-04-17T09:26:36.567Z,940.28
2018-04-17T09:27:36.482Z,940.32
2018-04-17T09:28:36.485Z,940.35
2018-04-17T09:29:36.516Z,940.39
2018-04-17T09:30:36.504Z,940.39
2018-04-17T09:31:36.615Z,940.38
2018-04-17T09:32:36.556Z,940.41
2018-04-17T09:33:36.556Z,940.47
2018-04-17T09:34:36.581Z,940.46
2018-04-17T09:35:36.568Z,940.45
2018-04-17T09:36:36.736Z,940.46
2018-04-17T09:37:36.595Z,940.47
2018-04-17T09:38:36.609Z,940.55
2018-04-17T09:39:36.631Z,940.57
2018-04-17T09:40:36.660Z,940.60
2018-04-17T09:41:36.767Z,940.54
2018-04-17T09:42:36.689Z,940.57
2018-04-17T09:43:36.699Z,940.60
2018-04-17T09:44:36.708Z,940.63
2018-04-17T09:45:36.703Z,940.63
2018-04-17T09:46:36.817Z,940.63
2018-04-17T09:47:36.755Z,940.63
2018-04-17T09:48:36.755Z,940.67
2018-04-17T09:49:36.755Z,940.67
2018-04-17T09:50:36.816Z,940.65
2018-04-17T09:51:36.883Z,940.71
2018-04-17T09:52:36.788Z,940.71
2018-04-17T09:53:36.805Z,940.69
2018-04-17T09:54:36.853Z,940.72
2018-04-17T09:55:36.847Z,940.73
2018-04-17T09:56:36.944Z,940.73
2018-04-17T09:57:36.920Z,940.72
2018-04-17T09:58:36.887Z,940.74
2018-04-17T09:59:36.900Z,940.76
2018-04-17T10:00:36.911Z,940.77
2018-04-17T10:01:37.086Z,940.78
2018-04-17T10:02:36.952Z,940.82
2018-04-17T10:03:37.022Z,940.81
2018-04-17T10:04:36.978Z,940.81
2018-04-17T10:05:36.968Z,940.82
2018-04-17T10:06:37.076Z,940.78
2018-04-17T10:07:36.990Z,940.75
2018-04-17T10:08:37.016Z,940.74
2018-04-17T10:09:37.025Z,940.72
2018-04-17T10:10:37.031Z,940.71
2018-04-17T10:11:37.168Z,940.69
2018-04-17T10:12:37.074Z,940.70
2018-04-17T10:13:37.075Z,940.65
2018-04-17T10:14:37.143Z,940.66
2018-04-17T10:15:37.135Z,940.66
2018-04-17T10:16:37.215Z,940.67
2018-04-17T10:17:37.151Z,940.69
2018-04-17T10:18:37.157Z,940.71
2018-04-17T10:19:37.187Z,940.75
2018-04-17T10:20:37.172Z,940.79
2018-04-17T10:21:37.282Z,940.86
2018-04-17T10:22:37.227Z,940.86
2018-04-17T10:23:37.242Z,940.88
2018-04-17T10:24:37.272Z,940.88
2018-04-17T10:25:37.240Z,940.91
2018-04-17T10:26:37.354Z,940.92
2018-04-17T10:27:37.303Z,940.88
2018-04-17T10:28:37.286Z,940.86
2018-04-17T10:29:37.342Z,940.90
2018-04-17T10:30:37.323Z,940.86
2018-04-17T10:31:37.431Z,940.87
2018-04-17T10:32:37.345Z,940.82
2018-04-17T10:33:37.393Z,940.82
2018-04-17T10:34:37.411Z,940.82
2018-04-17T10:35:37.390Z,940.85
2018-04-17T10:36:37.533Z,940.88
2018-04-17T10:37:37.423Z,940.95
2018-04-17T10:38:37.433Z,940.97
2018-04-17T10:39:37.487Z,941.03
2018-04-17T10:40:37.492Z,941.05
2018-04-17T10:41:37.608Z,941.11
2018-04-17T10:42:37.502Z,941.17
2018-04-17T10:43:37.512Z,941.20
2018-04-17T10:44:37.589Z,941.22
2018-04-17T10:45:37.568Z,941.21
2018-04-17T10:46:37.668Z,941.23
2018-04-17T10:47:37.603Z,941.25
2018-04-17T10:48:37.616Z,941.29
2018-04-17T10:49:37.667Z,941.32
2018-04-17T10:50:37.626Z,941.27
2018-04-17T10:51:37.747Z,941.31
2018-04-17T10:52:37.655Z,941.29
2018-04-17T10:53:37.688Z,941.36
2018-04-17T10:54:37.693Z,941.34
2018-04-17T10:55:37.726Z,941.34
2018-04-17T10:56:37.828Z,941.38
2018-04-17T10:57:37.731Z,941.35
2018-04-17T10:58:37.778Z,941.34
2018-04-17T10:59:37.790Z,941.34
2018-04-17T11:00:37.813Z,941.34
2018-04-17T11:01:37.905Z,941.35
2018-04-17T11:02:37.826Z,941.37
2018-04-17T11:03:37.833Z,941.39
2018-04-17T11:04:37.903Z,941.40
2018-04-17T11:05:37.863Z,941.42
2018-04-17T11:06:38.013Z,941.41
2018-04-17T11:07:37.893Z,941.34
2018-04-17T11:08:37.942Z,941.39
2018-04-17T11:09:37.983Z,941.37
2018-04-17T11:10:37.975Z,941.39
2018-04-17T11:11:38.092Z,941.32
2018-04-17T11:12:38.007Z,941.32
2018-04-17T11:13:38.023Z,941.38
2018-04-17T11:14:38.096Z,941.29
2018-04-17T11:15:38.031Z,941.36
2018-04-17T11:16:38.147Z,941.32
2018-04-17T11:17:38.087Z,941.31
2018-04-17T11:18:38.102Z,941.42
2018-04-17T11:19:38.121Z,941.39
2018-04-17T11:20:38.143Z,941.37
2018-04-17T11:21:38.249Z,941.45
2018-04-17T11:22:38.173Z,941.42
2018-04-17T11:23:38.176Z,941.43
2018-04-17T11:24:38.243Z,941.47
2018-04-17T11:25:38.225Z,941.49
2018-04-17T11:26:38.323Z,941.51
2018-04-17T11:27:38.256Z,941.53
2018-04-17T11:28:38.249Z,941.55
2018-04-17T11:29:38.278Z,941.58
2018-04-17T11:30:39.297Z,941.61
2018-04-17T11:31:38.408Z,941.61
2018-04-17T11:32:38.320Z,941.55
2018-04-17T11:33:38.326Z,941.58
2018-04-17T11:34:38.423Z,941.53
2018-04-17T11:35:38.392Z,941.59
2018-04-17T11:36:38.490Z,941.59
2018-04-17T11:37:38.424Z,941.55
2018-04-17T11:38:38.447Z,941.51
2018-04-17T11:39:38.460Z,941.51
2018-04-17T11:40:38.453Z,941.52
2018-04-17T11:41:38.592Z,941.53
2018-04-17T11:42:38.497Z,941.53
2018-04-17T11:43:38.498Z,941.56
2018-04-17T11:44:38.546Z,941.55
2018-04-17T11:45:38.537Z,941.62
2018-04-17T11:46:38.665Z,941.63
2018-04-17T11:47:38.567Z,941.70
2018-04-17T11:48:38.625Z,941.69
2018-04-17T11:49:38.639Z,941.68
2018-04-17T11:50:38.616Z,941.79
2018-04-17T11:51:38.745Z,941.74
2018-04-17T11:52:38.655Z,941.75
2018-04-17T11:53:38.673Z,941.77
2018-04-17T11:54:38.774Z,941.80
2018-04-17T11:55:38.730Z,941.83
2018-04-17T11:56:38.818Z,941.81
2018-04-17T11:57:38.768Z,941.83
2018-04-17T11:58:38.759Z,941.84
2018-04-17T11:59:38.788Z,941.86
2018-04-17T12:00:38.814Z,941.84
2018-04-17T12:01:38.932Z,941.86
2018-04-17T12:02:38.852Z,941.87
2018-04-17T12:03:38.863Z,941.90
2018-04-17T12:04:38.857Z,941.96
2018-04-17T12:05:38.875Z,941.98
2018-04-17T12:06:38.987Z,942.03
2018-04-17T12:07:38.909Z,942.05
2018-04-17T12:08:38.946Z,941.95
2018-04-17T12:09:38.958Z,941.99
2018-04-17T12:10:38.954Z,941.98
2018-04-17T12:11:39.072Z,941.96
2018-04-17T12:12:38.990Z,941.95
2018-04-17T12:13:39.036Z,942.00
2018-04-17T12:14:39.121Z,942.04
2018-04-17T12:15:39.051Z,941.99
2018-04-17T12:16:39.171Z,942.03
2018-04-17T12:17:39.078Z,942.03
2018-04-17T12:18:39.103Z,942.07
2018-04-17T12:19:39.139Z,942.10
2018-04-17T12:20:39.165Z,942.10
2018-04-17T12:21:39.287Z,942.11
2018-04-17T12:22:39.201Z,942.16
2018-04-17T12:23:39.193Z,942.11
2018-04-17T12:24:39.295Z,942.03
2018-04-17T12:25:39.252Z,942.05
2018-04-17T12:26:39.347Z,942.07
2018-04-17T12:27:39.265Z,941.99
2018-04-17T12:28:39.284Z,941.96